createdAt,value
2023-02-17T13:35:31.659Z,2.20
2023-02-17T13:37:59.150Z,1.50
2023-02-17T13:40:36.266Z,2.22
2023-02-17T13:43:10.945Z,2.00
2023-02-17T13:45:42.107Z,2.15
2023-02-17T13:48:14.334Z,2.03
2023-02-17T13:50:46.395Z,2.08
2023-02-17T13:53:25.259Z,2.60
2023-02-17T13:55:53.158Z,2.05
2023-02-17T13:58:24.047Z,1.98
2023-02-17T14:00:51.651Z,1.98
2023-02-17T14:03:21.175Z,2.22
2023-02-17T14:05:51.103Z,1.77
2023-02-17T14:08:20.325Z,1.90
2023-02-17T14:10:47.960Z,2.38
2023-02-17T14:13:15.625Z,2.00
2023-02-17T14:15:53.949Z,2.35
2023-02-17T14:18:33.339Z,1.73
2023-02-17T14:21:03.123Z,1.90
2023-02-17T14:23:41.787Z,2.53
2023-02-17T14:26:13.426Z,3.00
2023-02-17T14:28:40.798Z,3.00
2023-02-17T14:31:12.217Z,2.65
2023-02-17T14:33:39.683Z,2.40
2023-02-17T14:36:11.239Z,2.72
2023-02-17T14:38:41.327Z,2.50
2023-02-17T14:41:10.087Z,2.20
2023-02-17T14:43:37.469Z,2.17
2023-02-17T14:46:05.674Z,1.90
2023-02-17T14:48:33.251Z,2.42
2023-02-17T14:51:01.665Z,2.55
2023-02-17T14:53:31.508Z,2.47
2023-02-17T14:56:00.993Z,1.83
2023-02-17T14:58:28.938Z,2.45
2023-02-17T15:00:56.426Z,2.10
2023-02-17T15:03:23.953Z,2.45
2023-02-17T15:05:51.728Z,2.80
2023-02-17T15:08:20.680Z,2.00
2023-02-17T15:10:49.462Z,3.10
2023-02-17T15:13:18.859Z,2.77
2023-02-17T15:15:47.819Z,2.03
2023-02-17T15:18:16.208Z,3.80
2023-02-17T15:20:45.405Z,2.55
2023-02-17T15:23:13.521Z,2.25
2023-02-17T15:25:40.938Z,2.80
2023-02-17T15:28:12.840Z,2.92
2023-02-17T15:30:40.298Z,2.75
2023-02-17T15:33:13.814Z,1.75
2023-02-17T15:35:41.683Z,2.45
2023-02-17T15:38:11.863Z,1.27
2023-02-17T15:40:39.460Z,2.13
2023-02-17T15:43:08.324Z,1.40
2023-02-17T15:45:37.067Z,1.00
2023-02-17T15:48:05.846Z,1.00
2023-02-17T15:50:33.332Z,0.90
2023-02-17T15:53:00.778Z,1.17
2023-02-17T15:55:29.077Z,0.90
2023-02-17T15:57:58.861Z,1.00
2023-02-17T16:00:27.256Z,1.10
2023-02-17T16:02:56.515Z,1.00
2023-02-17T16:05:25.119Z,0.88
2023-02-17T16:07:52.721Z,1.00
2023-02-17T16:10:20.934Z,1.00
2023-02-17T16:12:49.299Z,1.35
2023-02-17T16:15:18.697Z,1.00
2023-02-17T16:17:46.302Z,1.40
2023-02-17T16:20:19.412Z,1.40
2023-02-17T16:22:47.299Z,1.25
2023-02-17T16:25:15.395Z,5.60
2023-02-17T16:27:43.316Z,3.78
2023-02-17T16:30:17.632Z,5.18
2023-02-17T16:32:45.234Z,2.97
2023-02-17T16:35:16.227Z,2.30
2023-02-17T16:37:48.699Z,1.75
2023-02-17T16:40:17.245Z,2.03
2023-02-17T16:42:44.649Z,1.73
2023-02-17T16:45:16.312Z,1.40
2023-02-17T16:47:45.581Z,1.13
2023-02-17T16:50:18.806Z,1.20
2023-02-17T16:52:47.861Z,1.40
2023-02-17T16:55:17.179Z,1.33
2023-02-17T16:57:45.190Z,1.20
2023-02-17T17:00:13.608Z,1.88
2023-02-17T17:02:41.536Z,2.20
2023-02-17T17:05:10.387Z,2.25
2023-02-17T17:07:38.740Z,1.93
2023-02-17T17:10:16.328Z,1.80
2023-02-17T17:12:44.503Z,2.22
2023-02-17T17:15:12.175Z,2.20
2023-02-17T17:17:42.248Z,2.67
2023-02-17T17:20:13.480Z,2.60
2023-02-17T17:22:41.077Z,5.60
2023-02-17T17:25:10.196Z,2.15
2023-02-17T17:27:37.975Z,1.80
2023-02-17T17:30:06.401Z,1.70
2023-02-17T17:32:33.915Z,1.55
2023-02-17T17:35:01.397Z,1.40
2023-02-17T17:37:28.835Z,2.00
2023-02-17T17:39:56.289Z,1.58
2023-02-17T17:42:25.023Z,1.48
2023-02-17T17:44:52.395Z,2.80
2023-02-17T17:47:29.490Z,2.15
2023-02-17T17:49:57.759Z,2.33
2023-02-17T17:52:26.769Z,1.90
2023-02-17T17:54:54.145Z,1.70
2023-02-17T17:57:22.545Z,1.98
2023-02-17T17:59:51.424Z,2.33
2023-02-17T18:02:18.950Z,1.77
2023-02-17T18:04:46.353Z,1.30
2023-02-17T18:07:13.769Z,1.80
2023-02-17T18:09:41.141Z,1.80
2023-02-17T18:12:10.644Z,1.95
2023-02-17T18:14:38.774Z,2.25
2023-02-17T18:17:08.498Z,2.30
2023-02-17T18:22:03.385Z,1.88
2023-02-17T18:24:30.939Z,1.70
2023-02-17T18:26:58.326Z,1.90
2023-02-17T18:29:26.135Z,1.55
2023-02-17T18:31:53.658Z,3.42
2023-02-17T18:34:22.445Z,3.72
2023-02-17T18:36:49.911Z,2.50
2023-02-17T18:39:17.399Z,1.95
2023-02-17T18:41:44.767Z,1.92
2023-02-17T18:44:13.674Z,2.22
2023-02-17T18:46:41.206Z,1.80
2023-02-17T18:49:08.746Z,2.20
2023-02-17T18:51:37.791Z,2.22
2023-02-17T18:54:10.727Z,1.98
2023-02-17T18:56:38.406Z,2.45
2023-02-17T18:59:06.354Z,2.15
2023-02-17T19:01:34.899Z,2.17
2023-02-17T19:04:02.417Z,2.53
2023-02-17T19:06:34.641Z,2.90
2023-02-17T19:09:05.155Z,4.78
2023-02-17T19:11:32.692Z,4.13
2023-02-17T19:14:01.173Z,2.83
2023-02-17T19:16:29.616Z,3.00
2023-02-17T19:18:58.439Z,3.33
2023-02-17T19:21:26.210Z,3.83
2023-02-17T19:23:53.914Z,2.58
2023-02-17T19:26:22.883Z,2.42
2023-02-17T19:28:50.306Z,2.80
2023-02-17T19:31:19.942Z,2.25
2023-02-17T19:36:30.904Z,2.45
2023-02-17T19:44:23.465Z,2.53
2023-02-17T19:46:50.895Z,2.83
2023-02-17T19:49:26.034Z,2.67
2023-02-17T19:51:55.875Z,1.70
2023-02-17T19:54:24.306Z,2.08
2023-02-17T19:56:52.266Z,1.33
2023-02-17T19:59:21.089Z,1.63
2023-02-17T20:01:53.119Z,2.00
2023-02-17T20:04:21.872Z,1.10
2023-02-17T20:06:49.896Z,1.20
2023-02-17T20:09:21.533Z,0.93
2023-02-17T20:11:49.900Z,0.93
2023-02-17T20:14:17.592Z,1.15
2023-02-17T20:19:27.554Z,0.63
2023-02-17T20:21:55.048Z,1.10
2023-02-17T20:24:22.736Z,1.08
2023-02-17T20:26:53.580Z,1.20
2023-02-17T20:29:21.436Z,0.82
2023-02-17T20:31:50.397Z,0.68
2023-02-17T20:37:01.599Z,0.80
2023-02-17T20:39:29.270Z,0.80
2023-02-17T20:41:58.889Z,0.75
2023-02-17T20:47:22.958Z,1.10
2023-02-17T20:49:53.311Z,1.20
2023-02-17T20:52:22.157Z,1.00
2023-02-17T20:54:49.805Z,0.88
2023-02-17T20:57:17.292Z,2.20
2023-02-17T21:07:56.678Z,1.13
2023-02-17T21:10:28.467Z,1.60
2023-02-17T21:15:37.223Z,1.25
2023-02-17T21:18:05.630Z,2.17
2023-02-17T21:20:33.061Z,1.15
2023-02-17T21:23:01.842Z,1.17
2023-02-17T21:25:29.270Z,1.02
2023-02-17T21:27:58.471Z,0.85
2023-02-17T21:30:26.258Z,1.08
2023-02-17T21:32:55.106Z,0.85
2023-02-17T21:38:05.602Z,0.95
2023-02-17T21:40:32.978Z,1.02
2023-02-17T21:45:44.608Z,2.45
2023-02-17T21:50:40.692Z,1.10
2023-02-17T21:53:09.474Z,1.60
2023-02-17T21:55:43.115Z,0.88
2023-02-17T22:22:29.770Z,0.28
2023-02-17T22:24:57.186Z,0.50
2023-02-17T22:27:24.596Z,0.55
2023-02-17T22:29:51.953Z,0.55
2023-02-17T22:32:19.348Z,0.70
2023-02-17T22:34:46.832Z,0.85
2023-02-17T22:39:57.063Z,0.60
2023-02-17T22:42:24.688Z,0.70
2023-02-17T22:44:52.162Z,0.57
2023-02-17T22:47:19.544Z,0.60
2023-02-17T22:49:47.042Z,0.55
2023-02-17T22:52:14.411Z,1.13
2023-02-17T22:54:42.011Z,0.70
2023-02-17T22:57:10.685Z,0.55
2023-02-17T22:59:38.084Z,0.93
2023-02-17T23:02:05.570Z,0.63
2023-02-17T23:04:33.007Z,0.68
2023-02-17T23:07:00.412Z,0.40
2023-02-17T23:09:27.802Z,0.88
2023-02-17T23:11:55.392Z,0.80
2023-02-17T23:14:25.619Z,0.60
2023-02-17T23:16:53.970Z,0.52
2023-02-17T23:22:10.911Z,0.43
2023-02-17T23:24:38.349Z,0.63
2023-02-17T23:27:05.984Z,0.50
2023-02-17T23:34:57.852Z,0.82
2023-02-17T23:37:25.357Z,1.13
2023-02-17T23:39:52.724Z,0.63
2023-02-17T23:42:20.091Z,1.13
2023-02-17T23:44:47.514Z,1.00
2023-02-17T23:47:15.001Z,0.40
2023-02-17T23:49:42.386Z,0.75
2023-02-17T23:52:11.327Z,0.82
2023-02-17T23:54:38.845Z,0.70
2023-02-17T23:57:06.266Z,0.82
2023-02-17T23:59:33.814Z,0.77
